メインページ
METAR-TAF:

METAR-TAF

空港 :

アンタナナリボ, マダガスカル

イヴァト空港

緯度: 18-48S, 経度: 047-29E, 海抜: 1279m

現時点の気象観測

当レポートは10分前の01:30(UTC)に作成
南/南東の風 4kt、南東からの間で変化する
気温 14°C
湿度 94%
気圧 1016 hPa
視程10km以上
高度1700ftの雲はほとんどない

METAR: FMMI 180130Z 16004KT 130V190 9999 FEW017 14/13 Q1016 NOSIG

時間: 04:40 (01:40 UTC)

予報

当レポートは2時間40分前の23:00(UTC)に作成
予報は18日の 00時(UTC)から 19日の 06時(UTC)まで有効
南東の風 10kt
視程10km以上
高度1700ftの雲は散在している
高度2000ftの雲は散在している

TAF: FMMI 172300Z 1800/1906 14010KT 9999 SCT017 SCT020

4,000以上の空港の気象観測と天気予報(METAR報とTAF報)

利用可能な観測所は地図上に黄色い丸と赤い丸で示す。

丸の上にカーソルを重ねると観測所名を参照できる。

次にクリックすると気象観測と天気予報を参照できる。

マップの切り替え:黒色「×」印の緑ボタンをクリックして拡大、「-」印の緑ボタンをクリックして縮小、緑色の三角印をクリックして隣りの地図に切り替え


METAR-TAF: